Terminal Aerodrome Forecast
Issued by NWS

Home | Current Version | Previous Version | Graphics & Text | Print | Product List | Glossary On
Versions: 1 2 3 4 5 6 7 8 9 10 11 12 13 14 15 16 17 18
000
FTUS43 KICT 252051 AAA
TAFHUT
TAF AMD
KHUT 252051Z 2521/2618 03024G32KT P6SM VCTS OVC040CB
      TEMPO 2521/2524 -TSRA
     FM260000 01024G32KT 6SM -RA SCT015 OVC025
     FM260600 36015G21KT P6SM SCT015 BKN100=

USA.gov is the U.S. government's official web portal to all federal, state and local government web resources and services.